sensor_id;sensor_type;location;lat;lon;timestamp;P1;durP1;ratioP1;P2;durP2;ratioP2
4385;SDS011;2207;53.540;10.042;2022-08-21T04:38:38;9.00;;;3.30;;
4385;SDS011;2207;53.540;10.042;2022-08-21T04:41:05;5.80;;;3.40;;
4385;SDS011;2207;53.540;10.042;2022-08-21T04:43:33;4.97;;;3.50;;
4385;SDS011;2207;53.540;10.042;2022-08-21T04:46:00;4.70;;;3.30;;
4385;SDS011;2207;53.540;10.042;2022-08-21T04:48:29;5.60;;;3.40;;
4385;SDS011;2207;53.540;10.042;2022-08-21T04:53:24;5.47;;;3.30;;
4385;SDS011;2207;53.540;10.042;2022-08-21T05:03:19;6.17;;;2.87;;
4385;SDS011;2207;53.540;10.042;2022-08-21T05:05:49;7.80;;;2.77;;
4385;SDS011;2207;53.540;10.042;2022-08-21T05:08:17;4.70;;;3.67;;
4385;SDS011;2207;53.540;10.042;2022-08-21T05:10:48;4.27;;;3.57;;
4385;SDS011;2207;53.540;10.042;2022-08-21T05:13:16;7.87;;;4.30;;
4385;SDS011;2207;53.540;10.042;2022-08-21T05:15:43;4.33;;;3.20;;
4385;SDS011;2207;53.540;10.042;2022-08-21T05:18:10;10.70;;;3.80;;
4385;SDS011;2207;53.540;10.042;2022-08-21T05:20:37;4.73;;;3.23;;
4385;SDS011;2207;53.540;10.042;2022-08-21T05:23:07;4.17;;;3.70;;
4385;SDS011;2207;53.540;10.042;2022-08-21T05:25:35;3.03;;;2.83;;
4385;SDS011;2207;53.540;10.042;2022-08-21T05:28:02;4.67;;;2.97;;
4385;SDS011;2207;53.540;10.042;2022-08-21T05:35:24;9.50;;;3.00;;
4385;SDS011;2207;53.540;10.042;2022-08-21T05:40:21;8.47;;;3.23;;
4385;SDS011;2207;53.540;10.042;2022-08-21T05:42:50;5.60;;;2.97;;
4385;SDS011;2207;53.540;10.042;2022-08-21T05:45:18;2.50;;;2.30;;
4385;SDS011;2207;53.540;10.042;2022-08-21T05:47:46;4.83;;;2.83;;
4385;SDS011;2207;53.540;10.042;2022-08-21T05:50:13;7.43;;;3.33;;
4385;SDS011;2207;53.540;10.042;2022-08-21T05:52:40;5.10;;;2.83;;
4385;SDS011;2207;53.540;10.042;2022-08-21T05:55:07;9.27;;;3.07;;
4385;SDS011;2207;53.540;10.042;2022-08-21T06:17:17;4.00;;;2.43;;
4385;SDS011;2207;53.540;10.042;2022-08-21T06:19:44;2.70;;;2.40;;
4385;SDS011;2207;53.540;10.042;2022-08-21T06:22:11;7.47;;;2.30;;
4385;SDS011;2207;53.540;10.042;2022-08-21T06:27:05;5.47;;;1.73;;
4385;SDS011;2207;53.540;10.042;2022-08-21T06:32:02;3.97;;;1.70;;
4385;SDS011;2207;53.540;10.042;2022-08-21T06:34:29;5.50;;;2.30;;
4385;SDS011;2207;53.540;10.042;2022-08-21T06:36:57;3.80;;;1.73;;
4385;SDS011;2207;53.540;10.042;2022-08-21T06:39:23;5.57;;;2.40;;
4385;SDS011;2207;53.540;10.042;2022-08-21T06:41:50;7.47;;;2.77;;
4385;SDS011;2207;53.540;10.042;2022-08-21T06:44:17;5.90;;;2.00;;
4385;SDS011;2207;53.540;10.042;2022-08-21T06:51:40;7.83;;;2.53;;
4385;SDS011;2207;53.540;10.042;2022-08-21T06:54:06;2.90;;;1.77;;
4385;SDS011;2207;53.540;10.042;2022-08-21T06:56:34;2.97;;;1.67;;
4385;SDS011;2207;53.540;10.042;2022-08-21T06:59:03;4.77;;;2.00;;
4385;SDS011;2207;53.540;10.042;2022-08-21T07:01:30;3.17;;;2.10;;
4385;SDS011;2207;53.540;10.042;2022-08-21T07:03:57;5.50;;;2.70;;
4385;SDS011;2207;53.540;10.042;2022-08-21T07:06:26;4.87;;;2.07;;
4385;SDS011;2207;53.540;10.042;2022-08-21T07:08:53;10.10;;;2.47;;
4385;SDS011;2207;53.540;10.042;2022-08-21T07:11:23;8.30;;;2.40;;
4385;SDS011;2207;53.540;10.042;2022-08-21T07:13:51;4.13;;;2.20;;
4385;SDS011;2207;53.540;10.042;2022-08-21T07:16:21;3.10;;;1.80;;
4385;SDS011;2207;53.540;10.042;2022-08-21T07:18:49;2.93;;;2.30;;
4385;SDS011;2207;53.540;10.042;2022-08-21T07:21:16;3.40;;;1.80;;
4385;SDS011;2207;53.540;10.042;2022-08-21T07:31:08;3.63;;;1.87;;
4385;SDS011;2207;53.540;10.042;2022-08-21T07:33:38;4.20;;;1.70;;
4385;SDS011;2207;53.540;10.042;2022-08-21T07:36:07;6.10;;;2.20;;
4385;SDS011;2207;53.540;10.042;2022-08-21T07:38:34;3.03;;;1.60;;
4385;SDS011;2207;53.540;10.042;2022-08-21T07:41:03;4.07;;;2.70;;
4385;SDS011;2207;53.540;10.042;2022-08-21T08:00:51;5.17;;;1.90;;
4385;SDS011;2207;53.540;10.042;2022-08-21T08:05:44;7.10;;;2.10;;
4385;SDS011;2207;53.540;10.042;2022-08-21T08:08:11;1.53;;;1.43;;
4385;SDS011;2207;53.540;10.042;2022-08-21T10:35:24;9.80;;;2.60;;
4385;SDS011;2207;53.540;10.042;2022-08-21T10:38:16;5.50;;;2.63;;
4385;SDS011;2207;53.540;10.042;2022-08-21T10:41:14;5.77;;;2.33;;
4385;SDS011;2207;53.540;10.042;2022-08-21T10:43:52;4.50;;;2.10;;
4385;SDS011;2207;53.540;10.042;2022-08-21T10:46:29;6.33;;;2.20;;
4385;SDS011;2207;53.540;10.042;2022-08-21T10:49:07;15.70;;;2.03;;
4385;SDS011;2207;53.540;10.042;2022-08-21T10:51:44;4.60;;;2.10;;
4385;SDS011;2207;53.540;10.042;2022-08-21T10:54:23;4.80;;;3.50;;
4385;SDS011;2207;53.540;10.042;2022-08-21T10:57:02;9.87;;;2.20;;
4385;SDS011;2207;53.540;10.042;2022-08-21T10:59:38;6.00;;;1.73;;
4385;SDS011;2207;53.540;10.042;2022-08-21T11:02:15;9.70;;;2.40;;
4385;SDS011;2207;53.540;10.042;2022-08-21T11:04:49;6.97;;;4.20;;
4385;SDS011;2207;53.540;10.042;2022-08-21T11:07:22;9.43;;;2.10;;
4385;SDS011;2207;53.540;10.042;2022-08-21T11:09:55;4.87;;;1.73;;
4385;SDS011;2207;53.540;10.042;2022-08-21T11:12:27;3.90;;;1.83;;
4385;SDS011;2207;53.540;10.042;2022-08-21T11:15:03;2.20;;;1.90;;
4385;SDS011;2207;53.540;10.042;2022-08-21T11:17:39;4.80;;;1.67;;
4385;SDS011;2207;53.540;10.042;2022-08-21T11:20:15;2.73;;;1.90;;
4385;SDS011;2207;53.540;10.042;2022-08-21T11:22:49;7.27;;;2.07;;
4385;SDS011;2207;53.540;10.042;2022-08-21T11:25:23;5.67;;;1.40;;
4385;SDS011;2207;53.540;10.042;2022-08-21T11:27:59;5.43;;;1.50;;
4385;SDS011;2207;53.540;10.042;2022-08-21T11:30:31;5.40;;;1.80;;
4385;SDS011;2207;53.540;10.042;2022-08-21T11:33:12;3.83;;;1.60;;
4385;SDS011;2207;53.540;10.042;2022-08-21T11:35:54;8.80;;;2.13;;
4385;SDS011;2207;53.540;10.042;2022-08-21T11:38:32;1.47;;;1.30;;
4385;SDS011;2207;53.540;10.042;2022-08-21T11:41:08;2.87;;;1.80;;
4385;SDS011;2207;53.540;10.042;2022-08-21T11:43:46;2.43;;;1.90;;
4385;SDS011;2207;53.540;10.042;2022-08-21T11:46:20;2.73;;;1.37;;
4385;SDS011;2207;53.540;10.042;2022-08-21T11:49:03;1.50;;;1.33;;
4385;SDS011;2207;53.540;10.042;2022-08-21T11:51:42;2.83;;;1.50;;
4385;SDS011;2207;53.540;10.042;2022-08-21T11:54:15;2.97;;;1.37;;
4385;SDS011;2207;53.540;10.042;2022-08-21T11:56:51;3.10;;;1.37;;
4385;SDS011;2207;53.540;10.042;2022-08-21T11:59:23;2.83;;;1.23;;
4385;SDS011;2207;53.540;10.042;2022-08-21T12:01:58;5.93;;;2.07;;
4385;SDS011;2207;53.540;10.042;2022-08-21T12:04:27;9.63;;;1.73;;
4385;SDS011;2207;53.540;10.042;2022-08-21T12:07:08;3.37;;;2.33;;
4385;SDS011;2207;53.540;10.042;2022-08-21T12:09:37;2.97;;;1.73;;
4385;SDS011;2207;53.540;10.042;2022-08-21T12:12:05;2.13;;;1.50;;
4385;SDS011;2207;53.540;10.042;2022-08-21T12:14:40;4.33;;;1.97;;
4385;SDS011;2207;53.540;10.042;2022-08-21T12:17:09;1.60;;;1.30;;
4385;SDS011;2207;53.540;10.042;2022-08-21T18:50:42;6.30;;;2.70;;
4385;SDS011;2207;53.540;10.042;2022-08-21T19:22:45;6.00;;;2.00;;
4385;SDS011;2207;53.540;10.042;2022-08-21T19:25:12;6.33;;;2.43;;
